sensor_id;sensor_type;location;lat;lon;timestamp;temperature;humidity
12872;DHT22;6504;53.766;9.626;2023-04-03T00:01:11;1.30;99.90
12872;DHT22;6504;53.766;9.626;2023-04-03T00:03:40;1.30;99.90
12872;DHT22;6504;53.766;9.626;2023-04-03T00:06:09;1.30;99.90
12872;DHT22;6504;53.766;9.626;2023-04-03T00:08:39;1.30;99.90
12872;DHT22;6504;53.766;9.626;2023-04-03T00:11:08;1.40;99.90
12872;DHT22;6504;53.766;9.626;2023-04-03T00:13:37;1.40;99.90
12872;DHT22;6504;53.766;9.626;2023-04-03T00:16:06;1.40;99.90
12872;DHT22;6504;53.766;9.626;2023-04-03T00:18:34;1.40;99.90
12872;DHT22;6504;53.766;9.626;2023-04-03T00:21:03;1.30;99.90
12872;DHT22;6504;53.766;9.626;2023-04-03T00:23:31;1.30;99.90
12872;DHT22;6504;53.766;9.626;2023-04-03T00:26:00;1.30;99.90
12872;DHT22;6504;53.766;9.626;2023-04-03T00:28:28;1.30;99.90
12872;DHT22;6504;53.766;9.626;2023-04-03T00:30:57;1.30;99.90
12872;DHT22;6504;53.766;9.626;2023-04-03T00:33:25;1.20;99.90
12872;DHT22;6504;53.766;9.626;2023-04-03T00:35:53;1.20;99.90
12872;DHT22;6504;53.766;9.626;2023-04-03T00:38:21;1.20;99.90
12872;DHT22;6504;53.766;9.626;2023-04-03T00:40:49;1.20;99.90
12872;DHT22;6504;53.766;9.626;2023-04-03T00:43:21;1.20;99.90
12872;DHT22;6504;53.766;9.626;2023-04-03T00:45:50;1.20;99.90
12872;DHT22;6504;53.766;9.626;2023-04-03T00:48:21;1.20;99.90
12872;DHT22;6504;53.766;9.626;2023-04-03T00:50:50;1.10;99.90
12872;DHT22;6504;53.766;9.626;2023-04-03T00:53:22;1.10;99.90
12872;DHT22;6504;53.766;9.626;2023-04-03T00:55:53;1.10;99.90
12872;DHT22;6504;53.766;9.626;2023-04-03T00:58:27;1.00;99.90
12872;DHT22;6504;53.766;9.626;2023-04-03T01:00:58;1.00;99.90
12872;DHT22;6504;53.766;9.626;2023-04-03T01:03:26;0.90;99.90
12872;DHT22;6504;53.766;9.626;2023-04-03T01:05:54;0.90;99.90
12872;DHT22;6504;53.766;9.626;2023-04-03T01:08:22;0.90;99.90
12872;DHT22;6504;53.766;9.626;2023-04-03T01:10:50;0.90;99.90
12872;DHT22;6504;53.766;9.626;2023-04-03T01:13:25;0.90;99.90
12872;DHT22;6504;53.766;9.626;2023-04-03T01:15:55;1.00;99.90
12872;DHT22;6504;53.766;9.626;2023-04-03T01:18:24;1.00;99.90
12872;DHT22;6504;53.766;9.626;2023-04-03T01:26:46;1.00;99.90
12872;DHT22;6504;53.766;9.626;2023-04-03T01:29:16;1.00;99.90
12872;DHT22;6504;53.766;9.626;2023-04-03T01:31:48;1.10;99.90
12872;DHT22;6504;53.766;9.626;2023-04-03T01:34:17;1.10;99.90
12872;DHT22;6504;53.766;9.626;2023-04-03T01:36:45;1.10;99.90
12872;DHT22;6504;53.766;9.626;2023-04-03T01:39:13;1.10;99.90
12872;DHT22;6504;53.766;9.626;2023-04-03T01:41:41;1.10;99.90
12872;DHT22;6504;53.766;9.626;2023-04-03T01:44:09;1.10;99.90
12872;DHT22;6504;53.766;9.626;2023-04-03T01:46:37;1.10;99.90
12872;DHT22;6504;53.766;9.626;2023-04-03T01:49:06;1.10;99.90
12872;DHT22;6504;53.766;9.626;2023-04-03T01:51:34;1.10;99.90
12872;DHT22;6504;53.766;9.626;2023-04-03T01:54:03;1.10;99.90
12872;DHT22;6504;53.766;9.626;2023-04-03T01:56:31;1.10;99.90
12872;DHT22;6504;53.766;9.626;2023-04-03T01:58:59;1.10;99.90
12872;DHT22;6504;53.766;9.626;2023-04-03T02:01:27;1.00;99.90
12872;DHT22;6504;53.766;9.626;2023-04-03T02:03:55;1.00;99.90
12872;DHT22;6504;53.766;9.626;2023-04-03T02:06:24;0.90;99.90
12872;DHT22;6504;53.766;9.626;2023-04-03T02:08:52;0.90;99.90
12872;DHT22;6504;53.766;9.626;2023-04-03T02:11:21;0.80;99.90
12872;DHT22;6504;53.766;9.626;2023-04-03T02:13:49;0.80;99.90
12872;DHT22;6504;53.766;9.626;2023-04-03T02:16:17;0.80;99.90
12872;DHT22;6504;53.766;9.626;2023-04-03T02:18:45;0.80;99.90
12872;DHT22;6504;53.766;9.626;2023-04-03T02:21:13;0.80;99.90
12872;DHT22;6504;53.766;9.626;2023-04-03T02:23:42;0.80;99.90
12872;DHT22;6504;53.766;9.626;2023-04-03T02:26:12;0.80;99.90
12872;DHT22;6504;53.766;9.626;2023-04-03T02:28:40;0.80;99.90
12872;DHT22;6504;53.766;9.626;2023-04-03T02:31:09;0.80;99.90
12872;DHT22;6504;53.766;9.626;2023-04-03T02:33:38;0.80;99.90
12872;DHT22;6504;53.766;9.626;2023-04-03T02:36:07;0.80;99.90
12872;DHT22;6504;53.766;9.626;2023-04-03T02:38:35;0.80;99.90
12872;DHT22;6504;53.766;9.626;2023-04-03T02:41:06;0.80;99.90
12872;DHT22;6504;53.766;9.626;2023-04-03T02:43:35;0.80;99.90
12872;DHT22;6504;53.766;9.626;2023-04-03T02:46:03;0.80;99.90
12872;DHT22;6504;53.766;9.626;2023-04-03T02:48:32;0.70;99.90
12872;DHT22;6504;53.766;9.626;2023-04-03T02:51:00;0.70;99.90
12872;DHT22;6504;53.766;9.626;2023-04-03T02:53:28;0.70;99.90
12872;DHT22;6504;53.766;9.626;2023-04-03T02:55:56;0.70;99.90
12872;DHT22;6504;53.766;9.626;2023-04-03T02:58:26;0.70;99.90
12872;DHT22;6504;53.766;9.626;2023-04-03T03:00:54;0.70;99.90
12872;DHT22;6504;53.766;9.626;2023-04-03T03:03:22;0.70;99.90
12872;DHT22;6504;53.766;9.626;2023-04-03T03:05:50;0.70;99.90
12872;DHT22;6504;53.766;9.626;2023-04-03T03:08:18;0.70;99.90
12872;DHT22;6504;53.766;9.626;2023-04-03T03:10:46;0.70;99.90
12872;DHT22;6504;53.766;9.626;2023-04-03T03:13:14;0.70;99.90
12872;DHT22;6504;53.766;9.626;2023-04-03T03:15:44;0.70;99.90
12872;DHT22;6504;53.766;9.626;2023-04-03T03:18:12;0.70;99.90
12872;DHT22;6504;53.766;9.626;2023-04-03T03:20:40;0.60;99.90
12872;DHT22;6504;53.766;9.626;2023-04-03T03:23:08;0.60;99.90
12872;DHT22;6504;53.766;9.626;2023-04-03T03:25:38;0.60;99.90
12872;DHT22;6504;53.766;9.626;2023-04-03T03:28:06;0.60;99.90
12872;DHT22;6504;53.766;9.626;2023-04-03T03:30:34;0.60;99.90
12872;DHT22;6504;53.766;9.626;2023-04-03T03:33:04;0.60;99.90
12872;DHT22;6504;53.766;9.626;2023-04-03T03:35:33;0.60;99.90
12872;DHT22;6504;53.766;9.626;2023-04-03T03:38:02;0.60;99.90
12872;DHT22;6504;53.766;9.626;2023-04-03T03:40:29;0.60;99.90
12872;DHT22;6504;53.766;9.626;2023-04-03T03:42:57;0.60;99.90
12872;DHT22;6504;53.766;9.626;2023-04-03T03:45:26;0.60;99.90
12872;DHT22;6504;53.766;9.626;2023-04-03T03:47:54;0.60;99.90
12872;DHT22;6504;53.766;9.626;2023-04-03T03:50:24;0.60;99.90
12872;DHT22;6504;53.766;9.626;2023-04-03T03:52:52;0.60;99.90
12872;DHT22;6504;53.766;9.626;2023-04-03T03:55:20;0.50;99.90
12872;DHT22;6504;53.766;9.626;2023-04-03T03:57:48;0.50;99.90
12872;DHT22;6504;53.766;9.626;2023-04-03T04:00:16;0.50;99.90
12872;DHT22;6504;53.766;9.626;2023-04-03T04:02:44;0.50;99.90
12872;DHT22;6504;53.766;9.626;2023-04-03T04:05:13;0.50;99.90
12872;DHT22;6504;53.766;9.626;2023-04-03T04:07:42;0.50;99.90
12872;DHT22;6504;53.766;9.626;2023-04-03T04:10:10;0.50;99.90
12872;DHT22;6504;53.766;9.626;2023-04-03T04:12:40;0.50;99.90
12872;DHT22;6504;53.766;9.626;2023-04-03T04:15:09;0.50;99.90
12872;DHT22;6504;53.766;9.626;2023-04-03T04:17:37;0.50;99.90
12872;DHT22;6504;53.766;9.626;2023-04-03T04:20:06;0.40;99.90
12872;DHT22;6504;53.766;9.626;2023-04-03T04:22:35;0.40;99.90
12872;DHT22;6504;53.766;9.626;2023-04-03T04:25:06;0.40;99.90
12872;DHT22;6504;53.766;9.626;2023-04-03T04:27:34;0.40;99.90
12872;DHT22;6504;53.766;9.626;2023-04-03T04:30:04;0.40;99.90
12872;DHT22;6504;53.766;9.626;2023-04-03T04:32:33;0.40;99.90
12872;DHT22;6504;53.766;9.626;2023-04-03T04:35:02;0.40;99.90
12872;DHT22;6504;53.766;9.626;2023-04-03T04:37:30;0.40;99.90
12872;DHT22;6504;53.766;9.626;2023-04-03T04:39:58;0.40;99.90
12872;DHT22;6504;53.766;9.626;2023-04-03T04:42:28;0.40;99.90
12872;DHT22;6504;53.766;9.626;2023-04-03T04:44:56;0.40;99.90
12872;DHT22;6504;53.766;9.626;2023-04-03T04:47:24;0.40;99.90
12872;DHT22;6504;53.766;9.626;2023-04-03T04:49:52;0.40;99.90
12872;DHT22;6504;53.766;9.626;2023-04-03T04:52:20;0.40;99.90
12872;DHT22;6504;53.766;9.626;2023-04-03T04:54:48;0.30;99.90
12872;DHT22;6504;53.766;9.626;2023-04-03T04:57:16;0.30;99.90
12872;DHT22;6504;53.766;9.626;2023-04-03T04:59:45;0.30;99.90
12872;DHT22;6504;53.766;9.626;2023-04-03T05:02:13;0.30;99.90
12872;DHT22;6504;53.766;9.626;2023-04-03T05:04:41;0.30;99.90
12872;DHT22;6504;53.766;9.626;2023-04-03T05:07:10;0.30;99.90
12872;DHT22;6504;53.766;9.626;2023-04-03T05:09:38;0.30;99.90
12872;DHT22;6504;53.766;9.626;2023-04-03T05:12:08;0.30;99.90
12872;DHT22;6504;53.766;9.626;2023-04-03T05:14:36;0.30;99.90
12872;DHT22;6504;53.766;9.626;2023-04-03T05:17:05;0.30;99.90
12872;DHT22;6504;53.766;9.626;2023-04-03T05:19:33;0.30;99.90
12872;DHT22;6504;53.766;9.626;2023-04-03T05:22:01;0.20;99.90
12872;DHT22;6504;53.766;9.626;2023-04-03T05:24:29;0.20;99.90
12872;DHT22;6504;53.766;9.626;2023-04-03T05:26:58;0.20;99.90
12872;DHT22;6504;53.766;9.626;2023-04-03T05:29:26;0.20;99.90
12872;DHT22;6504;53.766;9.626;2023-04-03T05:31:54;0.20;99.90
12872;DHT22;6504;53.766;9.626;2023-04-03T05:34:23;0.20;99.90
12872;DHT22;6504;53.766;9.626;2023-04-03T05:36:51;0.20;99.90
12872;DHT22;6504;53.766;9.626;2023-04-03T05:39:19;0.20;99.90
12872;DHT22;6504;53.766;9.626;2023-04-03T05:41:48;0.10;99.90
12872;DHT22;6504;53.766;9.626;2023-04-03T05:44:16;0.10;99.90
12872;DHT22;6504;53.766;9.626;2023-04-03T05:46:44;0.10;99.90
12872;DHT22;6504;53.766;9.626;2023-04-03T05:49:13;0.20;99.90
12872;DHT22;6504;53.766;9.626;2023-04-03T05:51:42;0.20;99.90
12872;DHT22;6504;53.766;9.626;2023-04-03T05:54:13;0.10;99.90
12872;DHT22;6504;53.766;9.626;2023-04-03T05:56:44;0.10;99.90
12872;DHT22;6504;53.766;9.626;2023-04-03T05:59:12;0.20;99.90
12872;DHT22;6504;53.766;9.626;2023-04-03T06:01:40;0.20;99.90
12872;DHT22;6504;53.766;9.626;2023-04-03T06:04:08;0.10;99.90
12872;DHT22;6504;53.766;9.626;2023-04-03T06:06:45;0.10;99.90
12872;DHT22;6504;53.766;9.626;2023-04-03T06:09:14;0.10;99.90
12872;DHT22;6504;53.766;9.626;2023-04-03T06:11:42;0.00;99.90
12872;DHT22;6504;53.766;9.626;2023-04-03T06:14:11;0.00;99.90
12872;DHT22;6504;53.766;9.626;2023-04-03T06:16:39;-0.10;99.90
12872;DHT22;6504;53.766;9.626;2023-04-03T06:19:08;-0.10;99.90
12872;DHT22;6504;53.766;9.626;2023-04-03T06:21:36;-0.10;99.90
12872;DHT22;6504;53.766;9.626;2023-04-03T06:24:06;-0.10;99.90
12872;DHT22;6504;53.766;9.626;2023-04-03T06:26:34;-0.10;99.90
12872;DHT22;6504;53.766;9.626;2023-04-03T06:29:03;-0.10;99.90
12872;DHT22;6504;53.766;9.626;2023-04-03T06:31:31;-0.10;99.90
12872;DHT22;6504;53.766;9.626;2023-04-03T06:33:59;0.00;99.90
12872;DHT22;6504;53.766;9.626;2023-04-03T06:36:28;0.00;99.90
12872;DHT22;6504;53.766;9.626;2023-04-03T06:38:56;0.10;99.90
12872;DHT22;6504;53.766;9.626;2023-04-03T06:41:26;0.20;99.90
12872;DHT22;6504;53.766;9.626;2023-04-03T06:43:54;0.20;99.90
12872;DHT22;6504;53.766;9.626;2023-04-03T06:46:23;0.30;99.90
12872;DHT22;6504;53.766;9.626;2023-04-03T06:48:52;0.40;99.90
12872;DHT22;6504;53.766;9.626;2023-04-03T06:51:22;0.50;99.90
12872;DHT22;6504;53.766;9.626;2023-04-03T06:53:52;0.60;99.90
12872;DHT22;6504;53.766;9.626;2023-04-03T06:56:20;0.70;99.90
12872;DHT22;6504;53.766;9.626;2023-04-03T06:58:50;0.70;99.90
12872;DHT22;6504;53.766;9.626;2023-04-03T07:01:21;0.80;99.90
12872;DHT22;6504;53.766;9.626;2023-04-03T07:03:49;0.90;99.90
12872;DHT22;6504;53.766;9.626;2023-04-03T07:06:18;1.10;99.90
12872;DHT22;6504;53.766;9.626;2023-04-03T07:08:46;1.20;99.90
12872;DHT22;6504;53.766;9.626;2023-04-03T07:11:16;1.40;99.90
12872;DHT22;6504;53.766;9.626;2023-04-03T07:13:44;1.40;99.90
12872;DHT22;6504;53.766;9.626;2023-04-03T07:16:13;1.60;99.90
12872;DHT22;6504;53.766;9.626;2023-04-03T07:18:42;1.70;99.90
12872;DHT22;6504;53.766;9.626;2023-04-03T07:21:10;1.80;99.90
12872;DHT22;6504;53.766;9.626;2023-04-03T07:23:38;1.90;99.90
12872;DHT22;6504;53.766;9.626;2023-04-03T07:26:06;2.10;99.90
12872;DHT22;6504;53.766;9.626;2023-04-03T07:28:35;2.20;99.90
12872;DHT22;6504;53.766;9.626;2023-04-03T07:31:06;2.40;99.90
12872;DHT22;6504;53.766;9.626;2023-04-03T07:33:40;2.40;99.90
12872;DHT22;6504;53.766;9.626;2023-04-03T07:36:09;2.50;99.90
12872;DHT22;6504;53.766;9.626;2023-04-03T07:38:38;2.60;99.90
12872;DHT22;6504;53.766;9.626;2023-04-03T07:41:06;2.70;99.90
12872;DHT22;6504;53.766;9.626;2023-04-03T07:43:34;2.80;99.90
12872;DHT22;6504;53.766;9.626;2023-04-03T07:46:05;2.90;99.90
12872;DHT22;6504;53.766;9.626;2023-04-03T07:48:34;3.00;99.90
12872;DHT22;6504;53.766;9.626;2023-04-03T07:51:04;3.10;99.90
12872;DHT22;6504;53.766;9.626;2023-04-03T07:53:33;3.20;99.90
12872;DHT22;6504;53.766;9.626;2023-04-03T07:56:01;3.40;99.90
12872;DHT22;6504;53.766;9.626;2023-04-03T07:58:30;3.50;99.90
12872;DHT22;6504;53.766;9.626;2023-04-03T08:00:58;3.60;99.90
12872;DHT22;6504;53.766;9.626;2023-04-03T08:03:26;3.70;99.90
12872;DHT22;6504;53.766;9.626;2023-04-03T08:05:55;3.80;99.90
12872;DHT22;6504;53.766;9.626;2023-04-03T08:08:32;4.00;99.90
12872;DHT22;6504;53.766;9.626;2023-04-03T08:11:01;4.10;99.90
12872;DHT22;6504;53.766;9.626;2023-04-03T08:13:32;4.30;99.90
12872;DHT22;6504;53.766;9.626;2023-04-03T08:16:08;4.40;99.90
12872;DHT22;6504;53.766;9.626;2023-04-03T08:18:37;4.50;99.90
12872;DHT22;6504;53.766;9.626;2023-04-03T08:21:07;4.60;99.90
12872;DHT22;6504;53.766;9.626;2023-04-03T08:23:37;4.60;99.90
12872;DHT22;6504;53.766;9.626;2023-04-03T08:26:07;4.50;99.90
12872;DHT22;6504;53.766;9.626;2023-04-03T08:28:35;4.50;99.90
12872;DHT22;6504;53.766;9.626;2023-04-03T08:31:04;4.50;99.90
12872;DHT22;6504;53.766;9.626;2023-04-03T08:33:35;4.70;99.90
12872;DHT22;6504;53.766;9.626;2023-04-03T08:36:04;4.80;99.90
12872;DHT22;6504;53.766;9.626;2023-04-03T08:38:33;4.90;99.90
12872;DHT22;6504;53.766;9.626;2023-04-03T08:41:13;4.90;99.90
12872;DHT22;6504;53.766;9.626;2023-04-03T08:43:53;5.00;99.90
12872;DHT22;6504;53.766;9.626;2023-04-03T08:46:33;4.90;99.90
12872;DHT22;6504;53.766;9.626;2023-04-03T08:49:04;4.90;99.90
12872;DHT22;6504;53.766;9.626;2023-04-03T08:51:42;4.90;99.90
12872;DHT22;6504;53.766;9.626;2023-04-03T08:54:23;4.90;99.90
12872;DHT22;6504;53.766;9.626;2023-04-03T08:56:55;4.90;99.90
12872;DHT22;6504;53.766;9.626;2023-04-03T08:59:28;4.80;99.90
12872;DHT22;6504;53.766;9.626;2023-04-03T09:01:58;4.90;99.90
12872;DHT22;6504;53.766;9.626;2023-04-03T09:04:31;5.00;99.90
12872;DHT22;6504;53.766;9.626;2023-04-03T09:07:04;5.20;99.90
12872;DHT22;6504;53.766;9.626;2023-04-03T09:09:35;5.20;99.90
12872;DHT22;6504;53.766;9.626;2023-04-03T09:12:15;5.30;99.90
12872;DHT22;6504;53.766;9.626;2023-04-03T09:14:49;5.40;99.90
12872;DHT22;6504;53.766;9.626;2023-04-03T09:17:26;5.40;99.90
12872;DHT22;6504;53.766;9.626;2023-04-03T09:20:04;5.40;99.90
12872;DHT22;6504;53.766;9.626;2023-04-03T09:22:40;5.50;99.90
12872;DHT22;6504;53.766;9.626;2023-04-03T09:25:20;5.60;99.90
12872;DHT22;6504;53.766;9.626;2023-04-03T09:27:51;5.70;99.90
12872;DHT22;6504;53.766;9.626;2023-04-03T09:30:22;5.90;99.90
12872;DHT22;6504;53.766;9.626;2023-04-03T09:32:52;5.90;99.90
12872;DHT22;6504;53.766;9.626;2023-04-03T09:35:23;5.90;99.90
12872;DHT22;6504;53.766;9.626;2023-04-03T09:38:16;5.80;99.90
12872;DHT22;6504;53.766;9.626;2023-04-03T09:40:45;5.90;99.90
12872;DHT22;6504;53.766;9.626;2023-04-03T09:43:28;5.90;99.90
12872;DHT22;6504;53.766;9.626;2023-04-03T09:46:15;6.00;99.90
12872;DHT22;6504;53.766;9.626;2023-04-03T09:48:56;6.00;99.90
12872;DHT22;6504;53.766;9.626;2023-04-03T09:51:34;5.90;99.90
12872;DHT22;6504;53.766;9.626;2023-04-03T09:54:24;5.90;99.90
12872;DHT22;6504;53.766;9.626;2023-04-03T09:56:54;5.90;99.90
12872;DHT22;6504;53.766;9.626;2023-04-03T09:59:24;6.10;99.90
12872;DHT22;6504;53.766;9.626;2023-04-03T10:02:00;6.00;99.90
12872;DHT22;6504;53.766;9.626;2023-04-03T10:04:38;6.10;99.90
12872;DHT22;6504;53.766;9.626;2023-04-03T10:07:26;6.10;99.90
12872;DHT22;6504;53.766;9.626;2023-04-03T10:09:56;6.10;99.90
12872;DHT22;6504;53.766;9.626;2023-04-03T10:12:24;6.10;99.90
12872;DHT22;6504;53.766;9.626;2023-04-03T10:14:58;6.10;99.90
12872;DHT22;6504;53.766;9.626;2023-04-03T10:17:36;6.10;99.90
12872;DHT22;6504;53.766;9.626;2023-04-03T10:20:16;6.30;99.90
12872;DHT22;6504;53.766;9.626;2023-04-03T10:23:00;6.30;99.90
12872;DHT22;6504;53.766;9.626;2023-04-03T10:25:34;6.40;99.90
12872;DHT22;6504;53.766;9.626;2023-04-03T10:28:11;6.50;99.90
12872;DHT22;6504;53.766;9.626;2023-04-03T10:30:50;6.60;99.90
12872;DHT22;6504;53.766;9.626;2023-04-03T10:33:36;6.70;99.90
12872;DHT22;6504;53.766;9.626;2023-04-03T10:36:16;6.80;99.90
12872;DHT22;6504;53.766;9.626;2023-04-03T10:38:51;6.90;99.90
12872;DHT22;6504;53.766;9.626;2023-04-03T10:41:28;6.90;99.90
12872;DHT22;6504;53.766;9.626;2023-04-03T10:44:10;6.90;99.90
12872;DHT22;6504;53.766;9.626;2023-04-03T10:46:46;7.00;99.90
12872;DHT22;6504;53.766;9.626;2023-04-03T10:49:25;7.10;99.90
12872;DHT22;6504;53.766;9.626;2023-04-03T10:52:02;7.10;99.90
12872;DHT22;6504;53.766;9.626;2023-04-03T10:54:36;7.20;99.90
12872;DHT22;6504;53.766;9.626;2023-04-03T10:57:08;7.30;99.90
12872;DHT22;6504;53.766;9.626;2023-04-03T10:59:42;7.40;99.90
12872;DHT22;6504;53.766;9.626;2023-04-03T11:02:17;7.60;99.90
12872;DHT22;6504;53.766;9.626;2023-04-03T11:04:52;7.70;99.90
12872;DHT22;6504;53.766;9.626;2023-04-03T11:07:23;7.70;99.90
12872;DHT22;6504;53.766;9.626;2023-04-03T11:09:56;7.70;99.90
12872;DHT22;6504;53.766;9.626;2023-04-03T11:12:32;7.80;99.90
12872;DHT22;6504;53.766;9.626;2023-04-03T11:15:04;7.80;99.90
12872;DHT22;6504;53.766;9.626;2023-04-03T11:17:39;7.90;99.90
12872;DHT22;6504;53.766;9.626;2023-04-03T11:20:16;7.90;99.90
12872;DHT22;6504;53.766;9.626;2023-04-03T11:22:48;8.10;99.90
12872;DHT22;6504;53.766;9.626;2023-04-03T11:25:20;8.20;99.90
12872;DHT22;6504;53.766;9.626;2023-04-03T11:27:54;8.20;99.90
12872;DHT22;6504;53.766;9.626;2023-04-03T11:30:27;8.20;99.90
12872;DHT22;6504;53.766;9.626;2023-04-03T11:33:10;8.30;99.90
12872;DHT22;6504;53.766;9.626;2023-04-03T11:35:43;8.30;99.90
12872;DHT22;6504;53.766;9.626;2023-04-03T11:38:18;8.40;99.90
12872;DHT22;6504;53.766;9.626;2023-04-03T11:40:49;8.40;99.90
12872;DHT22;6504;53.766;9.626;2023-04-03T11:43:23;8.40;99.90
12872;DHT22;6504;53.766;9.626;2023-04-03T11:45:54;8.30;99.90
12872;DHT22;6504;53.766;9.626;2023-04-03T11:48:51;8.40;99.90
12872;DHT22;6504;53.766;9.626;2023-04-03T11:51:42;8.40;99.90
12872;DHT22;6504;53.766;9.626;2023-04-03T11:57:44;8.30;99.90
12872;DHT22;6504;53.766;9.626;2023-04-03T12:00:47;8.20;99.90
12872;DHT22;6504;53.766;9.626;2023-04-03T12:03:31;8.30;99.90
12872;DHT22;6504;53.766;9.626;2023-04-03T12:09:26;8.40;99.90
12872;DHT22;6504;53.766;9.626;2023-04-03T12:11:56;8.40;99.90
12872;DHT22;6504;53.766;9.626;2023-04-03T12:14:25;8.50;99.90
12872;DHT22;6504;53.766;9.626;2023-04-03T12:16:54;8.60;99.90
12872;DHT22;6504;53.766;9.626;2023-04-03T12:19:31;8.60;99.90
12872;DHT22;6504;53.766;9.626;2023-04-03T12:22:14;8.60;99.90
12872;DHT22;6504;53.766;9.626;2023-04-03T12:24:45;8.70;99.90
12872;DHT22;6504;53.766;9.626;2023-04-03T12:27:29;8.70;99.90
12872;DHT22;6504;53.766;9.626;2023-04-03T12:30:07;8.70;99.90
12872;DHT22;6504;53.766;9.626;2023-04-03T12:32:56;8.80;99.90
12872;DHT22;6504;53.766;9.626;2023-04-03T12:35:42;8.90;99.90
12872;DHT22;6504;53.766;9.626;2023-04-03T12:38:25;9.00;99.90
12872;DHT22;6504;53.766;9.626;2023-04-03T12:41:18;9.10;99.90
12872;DHT22;6504;53.766;9.626;2023-04-03T12:43:57;9.10;99.90
12872;DHT22;6504;53.766;9.626;2023-04-03T12:46:32;9.10;99.90
12872;DHT22;6504;53.766;9.626;2023-04-03T12:49:05;9.10;99.90
12872;DHT22;6504;53.766;9.626;2023-04-03T12:51:44;9.10;99.90
12872;DHT22;6504;53.766;9.626;2023-04-03T12:54:15;9.20;99.90
12872;DHT22;6504;53.766;9.626;2023-04-03T12:56:45;9.10;99.90
12872;DHT22;6504;53.766;9.626;2023-04-03T12:59:15;9.20;99.90
12872;DHT22;6504;53.766;9.626;2023-04-03T13:01:44;9.10;99.90
12872;DHT22;6504;53.766;9.626;2023-04-03T13:04:20;9.00;99.90
12872;DHT22;6504;53.766;9.626;2023-04-03T13:06:49;8.90;99.90
12872;DHT22;6504;53.766;9.626;2023-04-03T13:09:20;8.90;99.90
12872;DHT22;6504;53.766;9.626;2023-04-03T13:11:55;8.90;99.90
12872;DHT22;6504;53.766;9.626;2023-04-03T13:14:26;8.90;99.90
12872;DHT22;6504;53.766;9.626;2023-04-03T13:16:56;8.90;99.90
12872;DHT22;6504;53.766;9.626;2023-04-03T13:19:27;8.90;99.90
12872;DHT22;6504;53.766;9.626;2023-04-03T13:22:00;8.90;99.90
12872;DHT22;6504;53.766;9.626;2023-04-03T13:24:31;8.90;99.90
12872;DHT22;6504;53.766;9.626;2023-04-03T13:27:02;9.00;99.90
12872;DHT22;6504;53.766;9.626;2023-04-03T13:29:33;9.10;99.90
12872;DHT22;6504;53.766;9.626;2023-04-03T13:32:03;9.00;99.90
12872;DHT22;6504;53.766;9.626;2023-04-03T13:34:37;9.10;99.90
12872;DHT22;6504;53.766;9.626;2023-04-03T13:37:06;9.00;99.90
12872;DHT22;6504;53.766;9.626;2023-04-03T13:39:37;9.00;99.90
12872;DHT22;6504;53.766;9.626;2023-04-03T13:42:20;9.00;99.90
12872;DHT22;6504;53.766;9.626;2023-04-03T13:45:05;9.00;99.90
12872;DHT22;6504;53.766;9.626;2023-04-03T13:47:38;8.90;99.90
12872;DHT22;6504;53.766;9.626;2023-04-03T13:50:20;9.00;99.90
12872;DHT22;6504;53.766;9.626;2023-04-03T13:52:52;9.00;99.90
12872;DHT22;6504;53.766;9.626;2023-04-03T13:55:23;8.90;99.90
12872;DHT22;6504;53.766;9.626;2023-04-03T13:58:21;8.90;99.90
12872;DHT22;6504;53.766;9.626;2023-04-03T14:00:52;8.70;99.90
12872;DHT22;6504;53.766;9.626;2023-04-03T14:03:23;8.60;99.90
12872;DHT22;6504;53.766;9.626;2023-04-03T14:05:53;8.60;99.90
12872;DHT22;6504;53.766;9.626;2023-04-03T14:08:22;8.50;99.90
12872;DHT22;6504;53.766;9.626;2023-04-03T14:11:13;8.50;99.90
12872;DHT22;6504;53.766;9.626;2023-04-03T14:13:44;8.40;99.90
12872;DHT22;6504;53.766;9.626;2023-04-03T14:16:14;8.40;99.90
12872;DHT22;6504;53.766;9.626;2023-04-03T14:18:45;8.40;99.90
12872;DHT22;6504;53.766;9.626;2023-04-03T14:21:14;8.50;99.90
12872;DHT22;6504;53.766;9.626;2023-04-03T14:23:43;8.50;99.90
12872;DHT22;6504;53.766;9.626;2023-04-03T14:26:13;8.60;99.90
12872;DHT22;6504;53.766;9.626;2023-04-03T14:28:44;8.60;99.90
12872;DHT22;6504;53.766;9.626;2023-04-03T14:31:14;8.60;99.90
12872;DHT22;6504;53.766;9.626;2023-04-03T14:33:42;8.60;99.90
12872;DHT22;6504;53.766;9.626;2023-04-03T14:36:13;8.60;99.90
12872;DHT22;6504;53.766;9.626;2023-04-03T14:38:43;8.70;99.90
12872;DHT22;6504;53.766;9.626;2023-04-03T14:41:12;8.70;99.90
12872;DHT22;6504;53.766;9.626;2023-04-03T14:43:45;8.70;99.90
12872;DHT22;6504;53.766;9.626;2023-04-03T14:46:16;8.70;99.90
12872;DHT22;6504;53.766;9.626;2023-04-03T14:48:45;8.60;99.90
12872;DHT22;6504;53.766;9.626;2023-04-03T14:51:15;8.60;99.90
12872;DHT22;6504;53.766;9.626;2023-04-03T14:53:44;8.60;99.90
12872;DHT22;6504;53.766;9.626;2023-04-03T14:56:13;8.50;99.90
12872;DHT22;6504;53.766;9.626;2023-04-03T14:58:44;8.60;99.90
12872;DHT22;6504;53.766;9.626;2023-04-03T15:01:16;8.70;99.90
12872;DHT22;6504;53.766;9.626;2023-04-03T15:03:44;8.70;99.90
12872;DHT22;6504;53.766;9.626;2023-04-03T15:06:13;8.80;99.90
12872;DHT22;6504;53.766;9.626;2023-04-03T15:08:42;8.80;99.90
12872;DHT22;6504;53.766;9.626;2023-04-03T15:11:11;8.90;99.90
12872;DHT22;6504;53.766;9.626;2023-04-03T15:13:40;8.70;99.90
12872;DHT22;6504;53.766;9.626;2023-04-03T15:16:16;8.70;99.90
12872;DHT22;6504;53.766;9.626;2023-04-03T15:18:45;8.70;99.90
12872;DHT22;6504;53.766;9.626;2023-04-03T15:21:14;8.60;99.90
12872;DHT22;6504;53.766;9.626;2023-04-03T15:23:43;8.50;99.90
12872;DHT22;6504;53.766;9.626;2023-04-03T15:26:11;8.50;99.90
12872;DHT22;6504;53.766;9.626;2023-04-03T15:28:41;8.40;99.90
12872;DHT22;6504;53.766;9.626;2023-04-03T15:31:11;8.50;99.90
12872;DHT22;6504;53.766;9.626;2023-04-03T15:33:39;8.50;99.90
12872;DHT22;6504;53.766;9.626;2023-04-03T15:36:08;8.50;99.90
12872;DHT22;6504;53.766;9.626;2023-04-03T15:38:56;8.50;99.90
12872;DHT22;6504;53.766;9.626;2023-04-03T15:41:32;8.50;99.90
12872;DHT22;6504;53.766;9.626;2023-04-03T15:44:00;8.40;99.90
12872;DHT22;6504;53.766;9.626;2023-04-03T15:46:28;8.30;99.90
12872;DHT22;6504;53.766;9.626;2023-04-03T15:48:57;8.20;99.90
12872;DHT22;6504;53.766;9.626;2023-04-03T15:51:25;8.20;99.90
12872;DHT22;6504;53.766;9.626;2023-04-03T15:53:53;8.20;99.90
12872;DHT22;6504;53.766;9.626;2023-04-03T15:56:21;8.10;99.90
12872;DHT22;6504;53.766;9.626;2023-04-03T15:58:50;8.20;99.90
12872;DHT22;6504;53.766;9.626;2023-04-03T16:01:18;8.20;99.90
12872;DHT22;6504;53.766;9.626;2023-04-03T16:03:46;8.20;99.90
12872;DHT22;6504;53.766;9.626;2023-04-03T16:06:15;8.20;99.90
12872;DHT22;6504;53.766;9.626;2023-04-03T16:08:46;8.10;99.90
12872;DHT22;6504;53.766;9.626;2023-04-03T16:11:15;8.00;99.90
12872;DHT22;6504;53.766;9.626;2023-04-03T16:13:43;8.00;99.90
12872;DHT22;6504;53.766;9.626;2023-04-03T16:16:13;8.00;99.90
12872;DHT22;6504;53.766;9.626;2023-04-03T16:18:41;8.00;99.90
12872;DHT22;6504;53.766;9.626;2023-04-03T16:21:09;7.90;99.90
12872;DHT22;6504;53.766;9.626;2023-04-03T16:23:37;7.80;99.90
12872;DHT22;6504;53.766;9.626;2023-04-03T16:26:05;7.80;99.90
12872;DHT22;6504;53.766;9.626;2023-04-03T16:28:33;7.70;99.90
12872;DHT22;6504;53.766;9.626;2023-04-03T16:31:02;7.70;99.90
12872;DHT22;6504;53.766;9.626;2023-04-03T16:33:31;7.60;99.90
12872;DHT22;6504;53.766;9.626;2023-04-03T16:36:00;7.60;99.90
12872;DHT22;6504;53.766;9.626;2023-04-03T16:38:28;7.50;99.90
12872;DHT22;6504;53.766;9.626;2023-04-03T16:40:56;7.40;99.90